sensor_id;sensor_type;location;lat;lon;timestamp;temperature;humidity
37974;DHT22;23796;51.458;7.000;2023-04-07T00:01:32;8.90;92.10
37974;DHT22;23796;51.458;7.000;2023-04-07T00:03:59;9.00;92.10
37974;DHT22;23796;51.458;7.000;2023-04-07T00:06:25;8.90;92.10
37974;DHT22;23796;51.458;7.000;2023-04-07T00:08:53;9.00;92.30
37974;DHT22;23796;51.458;7.000;2023-04-07T00:11:21;9.00;92.10
37974;DHT22;23796;51.458;7.000;2023-04-07T00:13:47;9.00;91.90
37974;DHT22;23796;51.458;7.000;2023-04-07T00:16:12;9.00;91.80
37974;DHT22;23796;51.458;7.000;2023-04-07T00:18:40;9.00;91.80
37974;DHT22;23796;51.458;7.000;2023-04-07T00:21:11;9.10;91.80
37974;DHT22;23796;51.458;7.000;2023-04-07T00:23:38;9.00;91.80
37974;DHT22;23796;51.458;7.000;2023-04-07T00:26:04;9.00;91.90
37974;DHT22;23796;51.458;7.000;2023-04-07T00:28:32;9.00;92.20
37974;DHT22;23796;51.458;7.000;2023-04-07T00:31:00;9.00;92.30
37974;DHT22;23796;51.458;7.000;2023-04-07T00:33:26;9.00;92.40
37974;DHT22;23796;51.458;7.000;2023-04-07T00:35:51;9.00;92.50
37974;DHT22;23796;51.458;7.000;2023-04-07T00:38:18;9.00;92.60
37974;DHT22;23796;51.458;7.000;2023-04-07T00:40:44;9.00;92.60
37974;DHT22;23796;51.458;7.000;2023-04-07T00:43:10;8.90;92.80
37974;DHT22;23796;51.458;7.000;2023-04-07T00:45:36;9.00;93.00
37974;DHT22;23796;51.458;7.000;2023-04-07T00:48:04;9.00;93.10
37974;DHT22;23796;51.458;7.000;2023-04-07T00:50:30;9.00;93.00
37974;DHT22;23796;51.458;7.000;2023-04-07T00:52:56;9.00;93.10
37974;DHT22;23796;51.458;7.000;2023-04-07T00:55:22;9.00;93.10
37974;DHT22;23796;51.458;7.000;2023-04-07T00:57:48;9.10;93.00
37974;DHT22;23796;51.458;7.000;2023-04-07T01:00:16;9.10;93.00
37974;DHT22;23796;51.458;7.000;2023-04-07T01:02:55;9.10;92.90
37974;DHT22;23796;51.458;7.000;2023-04-07T01:05:30;9.00;92.90
37974;DHT22;23796;51.458;7.000;2023-04-07T01:08:16;9.00;93.00
37974;DHT22;23796;51.458;7.000;2023-04-07T01:10:55;9.10;93.00
37974;DHT22;23796;51.458;7.000;2023-04-07T01:15:56;9.00;93.00
37974;DHT22;23796;51.458;7.000;2023-04-07T01:18:31;9.00;93.00
37974;DHT22;23796;51.458;7.000;2023-04-07T01:21:03;9.00;93.20
37974;DHT22;23796;51.458;7.000;2023-04-07T01:26:30;8.60;95.50
37974;DHT22;23796;51.458;7.000;2023-04-07T01:29:22;8.70;95.50
37974;DHT22;23796;51.458;7.000;2023-04-07T01:31:50;8.90;95.00
37974;DHT22;23796;51.458;7.000;2023-04-07T01:34:17;9.00;94.60
37974;DHT22;23796;51.458;7.000;2023-04-07T01:36:47;9.00;94.30
37974;DHT22;23796;51.458;7.000;2023-04-07T01:39:14;9.10;94.10
37974;DHT22;23796;51.458;7.000;2023-04-07T01:41:43;9.20;93.90
37974;DHT22;23796;51.458;7.000;2023-04-07T01:44:09;9.20;93.80
37974;DHT22;23796;51.458;7.000;2023-04-07T01:46:40;9.20;93.70
37974;DHT22;23796;51.458;7.000;2023-04-07T01:49:06;9.30;93.30
37974;DHT22;23796;51.458;7.000;2023-04-07T01:51:35;9.30;93.30
37974;DHT22;23796;51.458;7.000;2023-04-07T01:54:02;9.30;93.20
37974;DHT22;23796;51.458;7.000;2023-04-07T01:56:28;9.40;93.10
37974;DHT22;23796;51.458;7.000;2023-04-07T01:58:54;9.40;93.10
37974;DHT22;23796;51.458;7.000;2023-04-07T02:01:20;9.40;92.90
37974;DHT22;23796;51.458;7.000;2023-04-07T02:04:01;9.40;93.00
37974;DHT22;23796;51.458;7.000;2023-04-07T02:06:36;9.40;92.90
37974;DHT22;23796;51.458;7.000;2023-04-07T02:09:06;9.40;93.00
37974;DHT22;23796;51.458;7.000;2023-04-07T02:11:33;9.40;93.10
37974;DHT22;23796;51.458;7.000;2023-04-07T02:14:01;9.40;93.00
37974;DHT22;23796;51.458;7.000;2023-04-07T02:16:29;9.50;93.00
37974;DHT22;23796;51.458;7.000;2023-04-07T02:18:58;9.20;93.60
37974;DHT22;23796;51.458;7.000;2023-04-07T02:21:26;9.00;94.90
37974;DHT22;23796;51.458;7.000;2023-04-07T02:23:52;8.90;95.70
37974;DHT22;23796;51.458;7.000;2023-04-07T02:26:17;9.00;95.70
37974;DHT22;23796;51.458;7.000;2023-04-07T02:28:43;9.00;95.30
37974;DHT22;23796;51.458;7.000;2023-04-07T02:31:08;9.00;95.60
37974;DHT22;23796;51.458;7.000;2023-04-07T02:33:40;9.10;95.10
37974;DHT22;23796;51.458;7.000;2023-04-07T02:36:07;8.90;95.90
37974;DHT22;23796;51.458;7.000;2023-04-07T02:38:33;9.00;96.20
37974;DHT22;23796;51.458;7.000;2023-04-07T02:41:01;8.90;96.30
37974;DHT22;23796;51.458;7.000;2023-04-07T02:43:29;8.80;97.10
37974;DHT22;23796;51.458;7.000;2023-04-07T02:45:57;8.70;97.50
37974;DHT22;23796;51.458;7.000;2023-04-07T02:48:25;8.70;98.00
37974;DHT22;23796;51.458;7.000;2023-04-07T02:50:50;8.70;98.20
37974;DHT22;23796;51.458;7.000;2023-04-07T02:53:18;8.70;98.50
37974;DHT22;23796;51.458;7.000;2023-04-07T02:55:44;8.70;98.80
37974;DHT22;23796;51.458;7.000;2023-04-07T02:58:10;8.60;98.90
37974;DHT22;23796;51.458;7.000;2023-04-07T03:00:38;8.60;99.00
37974;DHT22;23796;51.458;7.000;2023-04-07T03:03:03;8.60;99.10
37974;DHT22;23796;51.458;7.000;2023-04-07T03:05:29;8.60;99.20
37974;DHT22;23796;51.458;7.000;2023-04-07T03:07:57;8.50;99.60
37974;DHT22;23796;51.458;7.000;2023-04-07T03:10:26;8.60;99.80
37974;DHT22;23796;51.458;7.000;2023-04-07T03:12:56;8.60;99.60
37974;DHT22;23796;51.458;7.000;2023-04-07T03:15:22;8.60;99.60
37974;DHT22;23796;51.458;7.000;2023-04-07T03:17:52;8.60;99.70
37974;DHT22;23796;51.458;7.000;2023-04-07T03:20:18;8.50;99.80
37974;DHT22;23796;51.458;7.000;2023-04-07T03:22:44;8.60;99.90
37974;DHT22;23796;51.458;7.000;2023-04-07T03:25:11;8.50;99.80
37974;DHT22;23796;51.458;7.000;2023-04-07T03:27:37;8.50;99.90
37974;DHT22;23796;51.458;7.000;2023-04-07T03:30:03;8.50;99.90
37974;DHT22;23796;51.458;7.000;2023-04-07T03:32:29;8.50;99.90
37974;DHT22;23796;51.458;7.000;2023-04-07T03:34:54;8.50;99.90
37974;DHT22;23796;51.458;7.000;2023-04-07T03:37:20;8.50;99.90
37974;DHT22;23796;51.458;7.000;2023-04-07T03:39:46;8.50;99.90
37974;DHT22;23796;51.458;7.000;2023-04-07T03:42:12;8.50;99.90
37974;DHT22;23796;51.458;7.000;2023-04-07T03:44:40;8.50;99.90
37974;DHT22;23796;51.458;7.000;2023-04-07T03:47:05;8.50;99.90
37974;DHT22;23796;51.458;7.000;2023-04-07T03:49:31;8.50;99.90
37974;DHT22;23796;51.458;7.000;2023-04-07T03:52:00;8.50;99.90
37974;DHT22;23796;51.458;7.000;2023-04-07T03:54:25;8.50;99.90
37974;DHT22;23796;51.458;7.000;2023-04-07T03:56:51;8.50;99.90
37974;DHT22;23796;51.458;7.000;2023-04-07T03:59:21;8.50;99.90
37974;DHT22;23796;51.458;7.000;2023-04-07T04:01:47;8.50;99.90
37974;DHT22;23796;51.458;7.000;2023-04-07T04:04:12;8.50;99.90
37974;DHT22;23796;51.458;7.000;2023-04-07T04:06:41;8.50;99.90
37974;DHT22;23796;51.458;7.000;2023-04-07T04:09:06;8.50;99.90
37974;DHT22;23796;51.458;7.000;2023-04-07T04:11:34;8.50;99.90
37974;DHT22;23796;51.458;7.000;2023-04-07T04:14:00;8.50;99.90
37974;DHT22;23796;51.458;7.000;2023-04-07T04:16:25;8.40;99.90
37974;DHT22;23796;51.458;7.000;2023-04-07T04:18:51;8.40;99.90
37974;DHT22;23796;51.458;7.000;2023-04-07T04:21:16;8.40;99.90
37974;DHT22;23796;51.458;7.000;2023-04-07T04:23:42;8.50;99.90
37974;DHT22;23796;51.458;7.000;2023-04-07T04:26:08;8.50;99.90
37974;DHT22;23796;51.458;7.000;2023-04-07T04:28:33;8.50;99.90
37974;DHT22;23796;51.458;7.000;2023-04-07T04:30:59;8.50;99.90
37974;DHT22;23796;51.458;7.000;2023-04-07T04:33:27;8.50;99.90
37974;DHT22;23796;51.458;7.000;2023-04-07T04:35:53;8.50;99.90
37974;DHT22;23796;51.458;7.000;2023-04-07T04:38:18;8.50;99.90
37974;DHT22;23796;51.458;7.000;2023-04-07T04:40:44;8.50;99.90
37974;DHT22;23796;51.458;7.000;2023-04-07T04:43:09;8.50;99.90
37974;DHT22;23796;51.458;7.000;2023-04-07T04:45:35;8.50;99.90
37974;DHT22;23796;51.458;7.000;2023-04-07T04:48:01;8.50;99.90
37974;DHT22;23796;51.458;7.000;2023-04-07T04:50:26;8.40;99.90
37974;DHT22;23796;51.458;7.000;2023-04-07T04:52:52;8.50;99.90
37974;DHT22;23796;51.458;7.000;2023-04-07T04:55:20;8.50;99.90
37974;DHT22;23796;51.458;7.000;2023-04-07T04:57:46;8.50;99.90
37974;DHT22;23796;51.458;7.000;2023-04-07T05:00:12;8.50;99.90
37974;DHT22;23796;51.458;7.000;2023-04-07T05:02:38;8.50;99.90
37974;DHT22;23796;51.458;7.000;2023-04-07T05:05:04;8.50;99.90
37974;DHT22;23796;51.458;7.000;2023-04-07T05:07:30;8.50;99.90
37974;DHT22;23796;51.458;7.000;2023-04-07T05:09:58;8.40;99.90
37974;DHT22;23796;51.458;7.000;2023-04-07T05:12:23;8.40;99.90
37974;DHT22;23796;51.458;7.000;2023-04-07T05:14:51;8.40;99.90
37974;DHT22;23796;51.458;7.000;2023-04-07T05:17:19;8.40;99.90
37974;DHT22;23796;51.458;7.000;2023-04-07T05:19:45;8.40;99.90
37974;DHT22;23796;51.458;7.000;2023-04-07T05:22:11;8.30;99.90
37974;DHT22;23796;51.458;7.000;2023-04-07T05:24:39;8.30;99.90
37974;DHT22;23796;51.458;7.000;2023-04-07T05:27:05;8.30;99.90
37974;DHT22;23796;51.458;7.000;2023-04-07T05:29:30;8.30;99.90
37974;DHT22;23796;51.458;7.000;2023-04-07T05:31:56;8.20;99.90
37974;DHT22;23796;51.458;7.000;2023-04-07T05:34:21;8.20;99.90
37974;DHT22;23796;51.458;7.000;2023-04-07T05:36:49;8.20;99.90
37974;DHT22;23796;51.458;7.000;2023-04-07T05:39:17;8.10;99.70
37974;DHT22;23796;51.458;7.000;2023-04-07T05:41:43;8.10;99.90
37974;DHT22;23796;51.458;7.000;2023-04-07T05:44:09;8.10;99.90
37974;DHT22;23796;51.458;7.000;2023-04-07T05:46:34;8.10;99.90
37974;DHT22;23796;51.458;7.000;2023-04-07T05:49:00;8.10;99.80
37974;DHT22;23796;51.458;7.000;2023-04-07T05:51:28;8.10;99.40
37974;DHT22;23796;51.458;7.000;2023-04-07T05:53:53;8.10;99.00
37974;DHT22;23796;51.458;7.000;2023-04-07T05:56:19;8.10;99.00
37974;DHT22;23796;51.458;7.000;2023-04-07T05:58:46;8.20;98.80
37974;DHT22;23796;51.458;7.000;2023-04-07T06:01:11;8.10;98.30
37974;DHT22;23796;51.458;7.000;2023-04-07T06:03:37;8.10;98.80
37974;DHT22;23796;51.458;7.000;2023-04-07T06:06:03;8.10;99.00
37974;DHT22;23796;51.458;7.000;2023-04-07T06:08:31;8.20;99.20
37974;DHT22;23796;51.458;7.000;2023-04-07T06:10:56;8.20;98.90
37974;DHT22;23796;51.458;7.000;2023-04-07T06:13:25;8.30;99.00
37974;DHT22;23796;51.458;7.000;2023-04-07T06:15:54;8.30;98.50
37974;DHT22;23796;51.458;7.000;2023-04-07T06:18:20;8.30;98.50
37974;DHT22;23796;51.458;7.000;2023-04-07T06:20:46;8.40;98.40
37974;DHT22;23796;51.458;7.000;2023-04-07T06:23:14;8.40;98.30
37974;DHT22;23796;51.458;7.000;2023-04-07T06:25:42;8.40;98.00
37974;DHT22;23796;51.458;7.000;2023-04-07T06:28:09;8.40;97.90
37974;DHT22;23796;51.458;7.000;2023-04-07T06:30:35;8.50;97.80
37974;DHT22;23796;51.458;7.000;2023-04-07T06:33:05;8.50;97.70
37974;DHT22;23796;51.458;7.000;2023-04-07T06:35:31;8.50;97.70
37974;DHT22;23796;51.458;7.000;2023-04-07T06:37:56;8.50;97.40
37974;DHT22;23796;51.458;7.000;2023-04-07T06:40:22;8.60;97.00
37974;DHT22;23796;51.458;7.000;2023-04-07T06:42:48;8.60;97.30
37974;DHT22;23796;51.458;7.000;2023-04-07T06:45:13;8.60;97.00
37974;DHT22;23796;51.458;7.000;2023-04-07T06:47:41;8.60;97.00
37974;DHT22;23796;51.458;7.000;2023-04-07T06:50:07;8.60;97.30
37974;DHT22;23796;51.458;7.000;2023-04-07T06:52:33;8.60;97.30
37974;DHT22;23796;51.458;7.000;2023-04-07T06:54:58;8.60;97.60
37974;DHT22;23796;51.458;7.000;2023-04-07T06:57:24;8.60;97.60
37974;DHT22;23796;51.458;7.000;2023-04-07T06:59:49;8.50;97.60
37974;DHT22;23796;51.458;7.000;2023-04-07T07:02:17;8.50;97.90
37974;DHT22;23796;51.458;7.000;2023-04-07T07:04:43;8.50;97.40
37974;DHT22;23796;51.458;7.000;2023-04-07T07:07:09;8.50;97.50
37974;DHT22;23796;51.458;7.000;2023-04-07T07:09:34;8.50;96.90
37974;DHT22;23796;51.458;7.000;2023-04-07T07:12:00;8.50;96.90
37974;DHT22;23796;51.458;7.000;2023-04-07T07:14:27;8.60;96.30
37974;DHT22;23796;51.458;7.000;2023-04-07T07:16:53;8.60;96.80
37974;DHT22;23796;51.458;7.000;2023-04-07T07:19:19;8.60;96.60
37974;DHT22;23796;51.458;7.000;2023-04-07T07:21:47;8.70;96.30
37974;DHT22;23796;51.458;7.000;2023-04-07T07:24:12;8.70;96.10
37974;DHT22;23796;51.458;7.000;2023-04-07T07:26:40;8.70;96.00
37974;DHT22;23796;51.458;7.000;2023-04-07T07:29:06;8.80;96.00
37974;DHT22;23796;51.458;7.000;2023-04-07T07:31:32;8.90;95.50
37974;DHT22;23796;51.458;7.000;2023-04-07T07:34:02;8.80;95.80
37974;DHT22;23796;51.458;7.000;2023-04-07T07:36:27;8.90;95.90
37974;DHT22;23796;51.458;7.000;2023-04-07T07:38:53;8.90;95.70
37974;DHT22;23796;51.458;7.000;2023-04-07T07:41:18;8.90;95.40
37974;DHT22;23796;51.458;7.000;2023-04-07T07:43:45;8.90;95.50
37974;DHT22;23796;51.458;7.000;2023-04-07T07:46:13;9.00;95.10
37974;DHT22;23796;51.458;7.000;2023-04-07T07:48:38;9.00;95.30
37974;DHT22;23796;51.458;7.000;2023-04-07T07:51:04;9.00;95.20
37974;DHT22;23796;51.458;7.000;2023-04-07T07:53:30;9.00;95.20
37974;DHT22;23796;51.458;7.000;2023-04-07T07:55:56;9.10;94.20
37974;DHT22;23796;51.458;7.000;2023-04-07T07:58:21;9.10;94.60
37974;DHT22;23796;51.458;7.000;2023-04-07T08:00:49;9.10;94.30
37974;DHT22;23796;51.458;7.000;2023-04-07T08:03:17;9.30;94.40
37974;DHT22;23796;51.458;7.000;2023-04-07T08:05:44;9.20;94.50
37974;DHT22;23796;51.458;7.000;2023-04-07T08:08:10;9.10;94.80
37974;DHT22;23796;51.458;7.000;2023-04-07T08:10:36;9.10;95.10
37974;DHT22;23796;51.458;7.000;2023-04-07T08:13:01;9.00;95.80
37974;DHT22;23796;51.458;7.000;2023-04-07T08:15:27;9.20;95.90
37974;DHT22;23796;51.458;7.000;2023-04-07T08:17:55;9.30;95.30
37974;DHT22;23796;51.458;7.000;2023-04-07T08:20:25;9.30;96.00
37974;DHT22;23796;51.458;7.000;2023-04-07T08:22:53;9.30;95.10
37974;DHT22;23796;51.458;7.000;2023-04-07T08:25:19;9.30;94.90
37974;DHT22;23796;51.458;7.000;2023-04-07T08:27:47;9.20;95.10
37974;DHT22;23796;51.458;7.000;2023-04-07T08:30:15;9.20;95.40
37974;DHT22;23796;51.458;7.000;2023-04-07T08:32:43;9.10;95.30
37974;DHT22;23796;51.458;7.000;2023-04-07T08:35:11;9.00;95.60
37974;DHT22;23796;51.458;7.000;2023-04-07T08:37:37;9.00;95.00
37974;DHT22;23796;51.458;7.000;2023-04-07T08:40:04;9.10;95.10
37974;DHT22;23796;51.458;7.000;2023-04-07T08:42:32;9.20;95.20
37974;DHT22;23796;51.458;7.000;2023-04-07T08:45:04;9.30;94.70
37974;DHT22;23796;51.458;7.000;2023-04-07T08:47:34;9.30;94.70
37974;DHT22;23796;51.458;7.000;2023-04-07T08:50:02;9.40;93.80
37974;DHT22;23796;51.458;7.000;2023-04-07T08:55:13;9.40;93.80
37974;DHT22;23796;51.458;7.000;2023-04-07T08:57:40;9.40;94.30
37974;DHT22;23796;51.458;7.000;2023-04-07T09:00:07;9.30;93.70
37974;DHT22;23796;51.458;7.000;2023-04-07T09:02:40;9.30;94.40
37974;DHT22;23796;51.458;7.000;2023-04-07T09:05:12;9.30;94.50
37974;DHT22;23796;51.458;7.000;2023-04-07T09:07:41;9.40;93.80
37974;DHT22;23796;51.458;7.000;2023-04-07T09:10:07;9.50;93.10
37974;DHT22;23796;51.458;7.000;2023-04-07T09:12:34;9.60;92.90
37974;DHT22;23796;51.458;7.000;2023-04-07T09:15:04;9.60;92.80
37974;DHT22;23796;51.458;7.000;2023-04-07T09:17:30;9.50;93.50
37974;DHT22;23796;51.458;7.000;2023-04-07T09:19:57;9.50;93.30
37974;DHT22;23796;51.458;7.000;2023-04-07T09:22:42;9.40;93.90
37974;DHT22;23796;51.458;7.000;2023-04-07T09:25:23;9.40;94.80
37974;DHT22;23796;51.458;7.000;2023-04-07T09:30:26;9.20;94.60
37974;DHT22;23796;51.458;7.000;2023-04-07T09:32:54;9.20;95.30
37974;DHT22;23796;51.458;7.000;2023-04-07T09:35:20;9.20;95.70
37974;DHT22;23796;51.458;7.000;2023-04-07T09:38:06;9.00;96.80
37974;DHT22;23796;51.458;7.000;2023-04-07T09:40:33;9.10;97.20
37974;DHT22;23796;51.458;7.000;2023-04-07T09:43:02;9.00;96.70
37974;DHT22;23796;51.458;7.000;2023-04-07T09:45:31;8.90;96.90
37974;DHT22;23796;51.458;7.000;2023-04-07T09:47:57;8.90;97.80
37974;DHT22;23796;51.458;7.000;2023-04-07T09:50:52;8.90;98.40
37974;DHT22;23796;51.458;7.000;2023-04-07T09:53:46;8.90;98.40
37974;DHT22;23796;51.458;7.000;2023-04-07T09:56:15;9.00;98.50
37974;DHT22;23796;51.458;7.000;2023-04-07T09:58:43;9.00;97.90
37974;DHT22;23796;51.458;7.000;2023-04-07T10:01:13;9.00;98.60
37974;DHT22;23796;51.458;7.000;2023-04-07T10:03:44;8.90;98.30
37974;DHT22;23796;51.458;7.000;2023-04-07T10:06:10;9.00;98.80
37974;DHT22;23796;51.458;7.000;2023-04-07T10:08:41;9.20;98.60
37974;DHT22;23796;51.458;7.000;2023-04-07T10:11:08;9.20;97.80
37974;DHT22;23796;51.458;7.000;2023-04-07T10:13:39;9.00;98.00
37974;DHT22;23796;51.458;7.000;2023-04-07T10:16:06;8.80;98.40
37974;DHT22;23796;51.458;7.000;2023-04-07T10:18:34;8.90;98.80
37974;DHT22;23796;51.458;7.000;2023-04-07T10:21:02;8.90;98.40
37974;DHT22;23796;51.458;7.000;2023-04-07T10:26:20;9.00;97.90
37974;DHT22;23796;51.458;7.000;2023-04-07T10:28:50;9.00;98.30
37974;DHT22;23796;51.458;7.000;2023-04-07T10:31:18;8.90;97.80
37974;DHT22;23796;51.458;7.000;2023-04-07T10:33:52;8.90;99.10
37974;DHT22;23796;51.458;7.000;2023-04-07T10:36:22;8.90;98.60
37974;DHT22;23796;51.458;7.000;2023-04-07T10:41:39;9.10;98.10
37974;DHT22;23796;51.458;7.000;2023-04-07T10:44:08;9.10;98.10
37974;DHT22;23796;51.458;7.000;2023-04-07T10:49:12;9.10;98.20
37974;DHT22;23796;51.458;7.000;2023-04-07T10:51:45;9.20;98.80
37974;DHT22;23796;51.458;7.000;2023-04-07T10:54:28;9.20;96.90
37974;DHT22;23796;51.458;7.000;2023-04-07T10:57:06;9.20;96.10
37974;DHT22;23796;51.458;7.000;2023-04-07T10:59:34;9.20;96.70
37974;DHT22;23796;51.458;7.000;2023-04-07T11:04:47;9.40;95.20
37974;DHT22;23796;51.458;7.000;2023-04-07T11:07:13;9.50;94.30
37974;DHT22;23796;51.458;7.000;2023-04-07T11:09:39;9.50;94.20
37974;DHT22;23796;51.458;7.000;2023-04-07T11:12:21;9.50;94.10
37974;DHT22;23796;51.458;7.000;2023-04-07T11:14:47;9.60;94.00
37974;DHT22;23796;51.458;7.000;2023-04-07T11:17:15;9.60;94.70
37974;DHT22;23796;51.458;7.000;2023-04-07T11:19:53;9.60;94.20
37974;DHT22;23796;51.458;7.000;2023-04-07T11:22:19;9.70;94.20
37974;DHT22;23796;51.458;7.000;2023-04-07T11:24:46;9.70;94.40
37974;DHT22;23796;51.458;7.000;2023-04-07T11:27:13;9.70;94.90
37974;DHT22;23796;51.458;7.000;2023-04-07T11:29:39;9.60;94.70
37974;DHT22;23796;51.458;7.000;2023-04-07T11:32:07;9.40;94.30
37974;DHT22;23796;51.458;7.000;2023-04-07T11:34:34;9.30;95.30
37974;DHT22;23796;51.458;7.000;2023-04-07T11:37:23;9.30;95.20
37974;DHT22;23796;51.458;7.000;2023-04-07T11:42:38;9.70;94.50
37974;DHT22;23796;51.458;7.000;2023-04-07T11:45:05;9.80;93.60
37974;DHT22;23796;51.458;7.000;2023-04-07T11:47:38;9.80;93.30
37974;DHT22;23796;51.458;7.000;2023-04-07T11:50:05;9.70;92.30
37974;DHT22;23796;51.458;7.000;2023-04-07T11:52:45;9.80;92.70
37974;DHT22;23796;51.458;7.000;2023-04-07T11:55:21;9.90;93.00
37974;DHT22;23796;51.458;7.000;2023-04-07T11:57:49;10.00;91.80
37974;DHT22;23796;51.458;7.000;2023-04-07T12:00:18;10.00;91.40
37974;DHT22;23796;51.458;7.000;2023-04-07T12:02:45;9.90;92.10
37974;DHT22;23796;51.458;7.000;2023-04-07T12:05:11;9.80;91.80
37974;DHT22;23796;51.458;7.000;2023-04-07T12:07:50;9.90;92.20
37974;DHT22;23796;51.458;7.000;2023-04-07T12:10:21;9.90;91.80
37974;DHT22;23796;51.458;7.000;2023-04-07T12:12:47;9.80;90.80
37974;DHT22;23796;51.458;7.000;2023-04-07T12:15:13;9.90;91.50
37974;DHT22;23796;51.458;7.000;2023-04-07T12:17:47;9.90;91.20
37974;DHT22;23796;51.458;7.000;2023-04-07T12:20:13;9.90;91.10
37974;DHT22;23796;51.458;7.000;2023-04-07T12:22:40;9.80;91.10
37974;DHT22;23796;51.458;7.000;2023-04-07T12:25:06;9.80;92.00
37974;DHT22;23796;51.458;7.000;2023-04-07T12:27:32;9.80;91.60
37974;DHT22;23796;51.458;7.000;2023-04-07T12:29:58;9.90;92.00
37974;DHT22;23796;51.458;7.000;2023-04-07T12:32:25;10.10;91.70
37974;DHT22;23796;51.458;7.000;2023-04-07T12:34:51;10.10;91.70
37974;DHT22;23796;51.458;7.000;2023-04-07T12:37:17;10.10;91.70
37974;DHT22;23796;51.458;7.000;2023-04-07T12:39:42;10.30;91.80
37974;DHT22;23796;51.458;7.000;2023-04-07T12:42:08;10.30;91.40
37974;DHT22;23796;51.458;7.000;2023-04-07T12:44:38;10.30;91.20
37974;DHT22;23796;51.458;7.000;2023-04-07T12:47:04;10.40;92.00
37974;DHT22;23796;51.458;7.000;2023-04-07T12:49:30;10.40;91.40
37974;DHT22;23796;51.458;7.000;2023-04-07T12:51:55;10.40;91.40
37974;DHT22;23796;51.458;7.000;2023-04-07T12:54:21;10.40;91.40
37974;DHT22;23796;51.458;7.000;2023-04-07T12:56:50;10.30;91.70
37974;DHT22;23796;51.458;7.000;2023-04-07T12:59:16;10.10;90.80
37974;DHT22;23796;51.458;7.000;2023-04-07T13:01:41;10.10;92.50
37974;DHT22;23796;51.458;7.000;2023-04-07T13:04:09;10.10;92.80
37974;DHT22;23796;51.458;7.000;2023-04-07T13:06:35;10.10;93.30
37974;DHT22;23796;51.458;7.000;2023-04-07T13:09:01;10.10;93.50
37974;DHT22;23796;51.458;7.000;2023-04-07T13:11:27;10.10;93.10
37974;DHT22;23796;51.458;7.000;2023-04-07T13:13:55;10.10;92.90
37974;DHT22;23796;51.458;7.000;2023-04-07T13:16:23;10.00;92.90
37974;DHT22;23796;51.458;7.000;2023-04-07T13:18:48;10.00;92.90
37974;DHT22;23796;51.458;7.000;2023-04-07T13:21:14;9.90;93.00
37974;DHT22;23796;51.458;7.000;2023-04-07T13:23:40;9.90;94.30
37974;DHT22;23796;51.458;7.000;2023-04-07T13:26:07;9.90;95.00
37974;DHT22;23796;51.458;7.000;2023-04-07T13:28:33;10.00;95.00
37974;DHT22;23796;51.458;7.000;2023-04-07T13:30:59;10.10;95.10
37974;DHT22;23796;51.458;7.000;2023-04-07T13:33:24;10.30;94.50
37974;DHT22;23796;51.458;7.000;2023-04-07T13:35:54;10.40;93.20
37974;DHT22;23796;51.458;7.000;2023-04-07T13:38:20;10.50;92.40
37974;DHT22;23796;51.458;7.000;2023-04-07T13:40:46;10.40;91.20
37974;DHT22;23796;51.458;7.000;2023-04-07T13:43:16;10.20;91.70
37974;DHT22;23796;51.458;7.000;2023-04-07T13:45:44;10.10;92.60
37974;DHT22;23796;51.458;7.000;2023-04-07T13:48:11;10.00;93.40
37974;DHT22;23796;51.458;7.000;2023-04-07T13:50:38;10.00;93.60
37974;DHT22;23796;51.458;7.000;2023-04-07T13:53:03;10.10;94.10
37974;DHT22;23796;51.458;7.000;2023-04-07T13:55:36;10.20;94.00
37974;DHT22;23796;51.458;7.000;2023-04-07T13:58:01;10.30;92.90
37974;DHT22;23796;51.458;7.000;2023-04-07T14:00:29;10.00;93.50
37974;DHT22;23796;51.458;7.000;2023-04-07T14:02:55;10.20;94.10
37974;DHT22;23796;51.458;7.000;2023-04-07T14:05:21;10.30;92.60
37974;DHT22;23796;51.458;7.000;2023-04-07T14:07:46;10.30;92.00
37974;DHT22;23796;51.458;7.000;2023-04-07T14:10:12;10.40;91.60
37974;DHT22;23796;51.458;7.000;2023-04-07T14:12:42;10.60;92.10
37974;DHT22;23796;51.458;7.000;2023-04-07T14:15:10;10.90;91.10
37974;DHT22;23796;51.458;7.000;2023-04-07T14:17:36;11.00;88.90
37974;DHT22;23796;51.458;7.000;2023-04-07T14:20:02;10.90;88.80
37974;DHT22;23796;51.458;7.000;2023-04-07T14:22:28;10.70;89.50
37974;DHT22;23796;51.458;7.000;2023-04-07T14:24:56;10.80;90.40
37974;DHT22;23796;51.458;7.000;2023-04-07T14:27:22;11.00;90.40
37974;DHT22;23796;51.458;7.000;2023-04-07T14:29:48;11.20;89.20
37974;DHT22;23796;51.458;7.000;2023-04-07T14:32:14;11.30;87.80
37974;DHT22;23796;51.458;7.000;2023-04-07T14:34:40;11.30;86.90
37974;DHT22;23796;51.458;7.000;2023-04-07T14:37:06;10.80;87.90
37974;DHT22;23796;51.458;7.000;2023-04-07T14:39:32;10.70;88.80
37974;DHT22;23796;51.458;7.000;2023-04-07T14:41:58;10.70;89.00
37974;DHT22;23796;51.458;7.000;2023-04-07T14:44:27;10.70;90.80
37974;DHT22;23796;51.458;7.000;2023-04-07T14:46:58;10.60;91.00
37974;DHT22;23796;51.458;7.000;2023-04-07T14:49:26;10.60;91.20
37974;DHT22;23796;51.458;7.000;2023-04-07T14:51:53;10.50;90.60
37974;DHT22;23796;51.458;7.000;2023-04-07T14:54:18;10.50;90.70
37974;DHT22;23796;51.458;7.000;2023-04-07T14:56:44;10.50;90.80
37974;DHT22;23796;51.458;7.000;2023-04-07T14:59:09;10.50;90.90
37974;DHT22;23796;51.458;7.000;2023-04-07T15:01:35;10.60;90.30
37974;DHT22;23796;51.458;7.000;2023-04-07T15:04:01;10.60;90.70
37974;DHT22;23796;51.458;7.000;2023-04-07T15:06:27;10.60;91.10
37974;DHT22;23796;51.458;7.000;2023-04-07T15:08:53;10.30;92.00
37974;DHT22;23796;51.458;7.000;2023-04-07T15:11:18;10.30;92.50
37974;DHT22;23796;51.458;7.000;2023-04-07T15:13:44;10.20;93.50
37974;DHT22;23796;51.458;7.000;2023-04-07T15:16:12;10.20;93.50
37974;DHT22;23796;51.458;7.000;2023-04-07T15:18:40;10.30;93.30
37974;DHT22;23796;51.458;7.000;2023-04-07T15:21:08;10.10;93.50
37974;DHT22;23796;51.458;7.000;2023-04-07T15:23:34;10.10;93.80
37974;DHT22;23796;51.458;7.000;2023-04-07T15:26:02;10.10;93.30
37974;DHT22;23796;51.458;7.000;2023-04-07T15:28:30;10.10;93.70
37974;DHT22;23796;51.458;7.000;2023-04-07T15:30:55;10.00;93.50
37974;DHT22;23796;51.458;7.000;2023-04-07T15:33:21;10.00;93.70
37974;DHT22;23796;51.458;7.000;2023-04-07T15:35:51;10.00;93.30
37974;DHT22;23796;51.458;7.000;2023-04-07T15:38:17;10.00;93.30
37974;DHT22;23796;51.458;7.000;2023-04-07T15:40:45;10.00;92.90
37974;DHT22;23796;51.458;7.000;2023-04-07T15:43:13;10.10;93.20
37974;DHT22;23796;51.458;7.000;2023-04-07T15:45:42;10.30;93.10
37974;DHT22;23796;51.458;7.000;2023-04-07T15:48:09;10.50;92.10
37974;DHT22;23796;51.458;7.000;2023-04-07T15:50:35;10.70;91.80
37974;DHT22;23796;51.458;7.000;2023-04-07T15:53:04;10.90;91.40
37974;DHT22;23796;51.458;7.000;2023-04-07T15:55:34;10.80;90.50
37974;DHT22;23796;51.458;7.000;2023-04-07T15:58:03;10.80;91.20
37974;DHT22;23796;51.458;7.000;2023-04-07T16:00:31;10.70;91.30
37974;DHT22;23796;51.458;7.000;2023-04-07T16:03:00;10.60;90.80
37974;DHT22;23796;51.458;7.000;2023-04-07T16:05:25;10.50;91.10
37974;DHT22;23796;51.458;7.000;2023-04-07T16:07:51;10.50;91.60
37974;DHT22;23796;51.458;7.000;2023-04-07T16:10:16;10.40;92.10